Time,TemperatureF,DewpointF,PressureIn,WindDirection,WindDirectionDegrees,WindSpeedMPH,WindSpeedGustMPH,Humidity,HourlyPrecipIn,Conditions,Clouds,dailyrainin,SoftwareType,DateUTC
2013-04-20 00:01:00,67.0,62.3,29.63,WSW,255,2.4,13.8,85,0.00,OVC,,0.00,WeatherDisplay:10.37,2013-04-20 04:01:00,
2013-04-20 00:02:00,67.0,62.3,29.63,SW,219,6.7,14.0,85,0.00,OVC,,0.00,WeatherDisplay:10.37,2013-04-20 04:02:00,
2013-04-20 00:07:00,67.1,62.4,29.64,SW,219,4.7,11.5,85,0.00,OVC,,0.00,WeatherDisplay:10.37,2013-04-20 04:07:00,
2013-04-20 00:12:00,67.0,62.3,29.63,SSW,198,4.5,10.0,85,0.00,OVC,,0.00,WeatherDisplay:10.37,2013-04-20 04:12:00,
2013-04-20 00:17:00,67.0,62.3,29.63,WSW,256,2.3,10.4,85,0.00,OVC,,0.00,WeatherDisplay:10.37,2013-04-20 04:17:00,
2013-04-20 00:22:00,66.9,62.2,29.62,SW,222,4.7,16.0,85,0.00,OVC,,0.00,WeatherDisplay:10.37,2013-04-20 04:22:00,
2013-04-20 00:27:00,66.8,62.5,29.63,South,169,4.6,13.0,86,0.00,OVC,,0.00,WeatherDisplay:10.37,2013-04-20 04:27:00,
2013-04-20 00:32:00,66.7,62.4,29.63,WSW,254,5.8,12.0,86,0.00,OVC,,0.00,WeatherDisplay:10.37,2013-04-20 04:32:00,
2013-04-20 00:37:00,66.7,62.4,29.63,SSW,204,4.2,16.0,86,0.00,OVC,,0.00,WeatherDisplay:10.37,2013-04-20 04:37:00,
2013-04-20 00:42:00,66.6,62.6,29.63,SW,236,6.8,10.4,87,0.00,OVC,,0.00,WeatherDisplay:10.37,2013-04-20 04:42:00,
2013-04-20 00:47:00,66.0,62.7,29.64,SW,233,4.5,8.1,89,0.01,RA,,0.02,WeatherDisplay:10.37,2013-04-20 04:47:00,
2013-04-20 00:52:00,65.5,62.5,29.65,SW,215,5.1,7.0,90,0.02,RA,,0.02,WeatherDisplay:10.37,2013-04-20 04:52:00,
2013-04-20 00:57:00,65.1,62.4,29.63,South,182,1.6,4.6,91,0.04,RA,,0.04,WeatherDisplay:10.37,2013-04-20 04:57:00,
2013-04-20 01:02:00,64.7,62.3,29.63,SSW,203,2.9,3.5,92,0.04, +RA,,0.04,WeatherDisplay:10.37,2013-04-20 05:02:00,
2013-04-20 01:07:00,64.5,62.4,29.63,West,276,1.8,3.5,93,0.04, +RA,,0.04,WeatherDisplay:10.37,2013-04-20 05:07:00,
2013-04-20 01:12:00,64.3,62.2,29.63,SW,219,1.8,6.0,93,0.05, +RA,,0.05,WeatherDisplay:10.37,2013-04-20 05:12:00,
2013-04-20 01:17:00,64.1,62.0,29.63,SW,216,2.6,3.5,93,0.05, +RA,,0.05,WeatherDisplay:10.37,2013-04-20 05:17:00,
2013-04-20 01:22:00,64.0,62.2,29.63,SW,236,3.1,6.9,94,0.06, +RA,,0.06,WeatherDisplay:10.37,2013-04-20 05:22:00,
2013-04-20 01:27:00,64.0,62.2,29.63,SW,219,1.4,4.0,94,0.06, +RA,,0.06,WeatherDisplay:10.37,2013-04-20 05:27:00,
2013-04-20 01:32:00,63.8,62.0,29.63,SSW,197,3.8,4.0,94,0.06, +RA,,0.06,WeatherDisplay:10.37,2013-04-20 05:32:00,
2013-04-20 01:37:00,63.8,62.0,29.63,SSW,201,0.8,3.5,94,0.07, +RA,,0.07,WeatherDisplay:10.37,2013-04-20 05:37:00,
2013-04-20 01:42:00,63.7,61.9,29.62,WSW,242,2.5,3.5,94,0.07, +RA,,0.07,WeatherDisplay:10.37,2013-04-20 05:42:00,
2013-04-20 01:47:00,63.6,61.8,29.63,SW,217,4.2,8.1,94,0.08,-RA,,0.08,WeatherDisplay:10.37,2013-04-20 05:47:00,
2013-04-20 01:52:00,63.5,61.7,29.62,South,171,1.7,4.6,94,0.06,-RA,,0.08,WeatherDisplay:10.37,2013-04-20 05:52:00,
2013-04-20 01:57:00,63.5,61.7,29.62,NNE,12,1.6,2.3,94,0.06,-RA,,0.09,WeatherDisplay:10.37,2013-04-20 05:57:00,
2013-04-20 02:02:00,63.4,61.9,29.62,SSW,213,0.7,3.5,95,0.05,-RA,,0.09,WeatherDisplay:10.37,2013-04-20 06:02:00,
2013-04-20 02:07:00,63.3,61.5,29.61,SW,223,3.0,6.9,94,0.05,OVC,,0.09,WeatherDisplay:10.37,2013-04-20 06:07:00,
2013-04-20 02:12:00,63.2,61.4,29.61,NW,320,4.2,6.9,94,0.04,OVC,,0.09,WeatherDisplay:10.37,2013-04-20 06:12:00,
2013-04-20 02:17:00,63.1,61.3,29.61,SSW,200,3.2,4.6,94,0.05,RA,,0.10,WeatherDisplay:10.37,2013-04-20 06:17:00,
2013-04-20 02:22:00,63.1,61.3,29.61,West,280,1.6,5.8,94,0.05,RA,,0.10,WeatherDisplay:10.37,2013-04-20 06:22:00,
2013-04-20 02:27:00,63.0,61.2,29.61,South,189,4.1,10.4,94,0.04,OVC,,0.10,WeatherDisplay:10.37,2013-04-20 06:27:00,
2013-04-20 02:32:00,63.0,61.2,29.61,WSW,252,1.7,4.6,94,0.04,-RA,,0.10,WeatherDisplay:10.37,2013-04-20 06:32:00,
2013-04-20 02:37:00,62.9,61.4,29.60,SSW,211,3.1,4.0,95,0.04,-RA,,0.10,WeatherDisplay:10.37,2013-04-20 06:37:00,
2013-04-20 02:42:00,62.9,61.4,29.60,South,190,2.0,3.5,95,0.03,-RA,,0.10,WeatherDisplay:10.37,2013-04-20 06:42:00,
2013-04-20 02:47:00,62.8,61.3,29.60,WSW,254,2.3,8.1,95,0.02,-RA,,0.10,WeatherDisplay:10.37,2013-04-20 06:47:00,
2013-04-20 02:52:00,62.7,61.2,29.60,SW,227,1.9,4.0,95,0.02,-RA,,0.10,WeatherDisplay:10.37,2013-04-20 06:52:00,
2013-04-20 02:57:00,62.6,60.8,29.60,WSW,242,2.2,5.8,94,0.02,-RA,,0.10,WeatherDisplay:10.37,2013-04-20 06:57:00,
2013-04-20 03:02:00,62.6,60.8,29.60,WSW,240,2.0,4.0,94,0.01,-RA,,0.10,WeatherDisplay:10.37,2013-04-20 07:02:00,
2013-04-20 03:07:00,62.4,60.7,29.59,South,174,4.1,9.2,94,0.01,-RA,,0.10,WeatherDisplay:10.37,2013-04-20 07:07:00,
2013-04-20 03:12:00,62.3,60.8,29.59,WSW,252,2.1,4.6,95,0.01,-RA,,0.10,WeatherDisplay:10.37,2013-04-20 07:12:00,
2013-04-20 03:17:00,62.3,60.8,29.59,West,275,1.0,3.5,95,0.02,-RA,,0.11,WeatherDisplay:10.37,2013-04-20 07:17:00,
2013-04-20 03:22:00,62.2,60.8,29.59,West,271,0.9,4.6,95,0.01,-RA,,0.11,WeatherDisplay:10.37,2013-04-20 07:22:00,
2013-04-20 03:27:00,62.1,60.7,29.60,SSE,167,0.6,8.1,95,0.01,-RA,,0.11,WeatherDisplay:10.37,2013-04-20 07:27:00,
2013-04-20 03:32:00,62.0,60.6,29.60,NW,314,3.4,4.0,95,0.01,-RA,,0.11,WeatherDisplay:10.37,2013-04-20 07:32:00,
2013-04-20 03:37:00,60.8,57.8,29.61,NNW,327,4.8,11.5,90,0.02,-RA,,0.12,WeatherDisplay:10.37,2013-04-20 07:37:00,
2013-04-20 03:42:00,59.0,56.1,29.61,WSW,252,4.6,8.1,90,0.02,-RA,,0.12,WeatherDisplay:10.37,2013-04-20 07:42:00,
2013-04-20 03:47:00,57.8,55.2,29.61,WSW,253,1.3,8.1,91,0.03,-RA,,0.13,WeatherDisplay:10.37,2013-04-20 07:47:00,
2013-04-20 03:52:00,56.9,54.6,29.62,NW,304,4.2,5.0,92,0.03,-RA,,0.13,WeatherDisplay:10.37,2013-04-20 07:52:00,
2013-04-20 03:57:00,56.3,54.0,29.62,NW,313,4.3,11.5,92,0.03,-RA,,0.13,WeatherDisplay:10.37,2013-04-20 07:57:00,
2013-04-20 04:02:00,56.0,54.0,29.62,West,271,1.4,3.5,93,0.04,-RA,,0.14,WeatherDisplay:10.37,2013-04-20 08:02:00,
2013-04-20 04:07:00,55.6,53.6,29.63,WNW,286,3.4,5.8,93,0.04,RA,,0.14,WeatherDisplay:10.37,2013-04-20 08:07:00,
2013-04-20 04:12:00,55.4,53.7,29.64,WSW,242,3.5,9.2,94,0.04,OVC,,0.14,WeatherDisplay:10.37,2013-04-20 08:12:00,
2013-04-20 04:17:00,55.1,53.1,29.65,NW,304,3.2,10.4,93,0.05,RA,,0.15,WeatherDisplay:10.37,2013-04-20 08:17:00,
2013-04-20 04:22:00,54.9,52.9,29.65,WSW,242,3.2,5.8,93,0.05,RA,,0.16,WeatherDisplay:10.37,2013-04-20 08:22:00,
2013-04-20 04:27:00,54.5,52.5,29.64,WSW,240,7.2,10.4,93,0.06,RA,,0.17,WeatherDisplay:10.37,2013-04-20 08:27:00,
2013-04-20 04:32:00,54.2,52.2,29.63,WSW,252,1.4,3.5,93,0.07,RA,,0.18,WeatherDisplay:10.37,2013-04-20 08:32:00,
2013-04-20 04:37:00,54.0,52.0,29.62,NW,304,3.4,4.6,93,0.07,RA,,0.18,WeatherDisplay:10.37,2013-04-20 08:37:00,
2013-04-20 04:42:00,53.7,51.7,29.62,West,281,1.9,4.6,93,0.06,OVC,,0.18,WeatherDisplay:10.37,2013-04-20 08:42:00,
2013-04-20 04:47:00,53.6,51.6,29.62,WSW,257,2.6,3.5,93,0.07,RA,,0.19,WeatherDisplay:10.37,2013-04-20 08:47:00,
2013-04-20 04:52:00,53.4,51.4,29.64,West,267,1.8,3.5,93,0.06,RA,,0.19,WeatherDisplay:10.37,2013-04-20 08:52:00,
2013-04-20 04:57:00,53.2,50.9,29.64,NE,47,3.3,3.5,92,0.06,OVC,,0.19,WeatherDisplay:10.37,2013-04-20 08:57:00,
2013-04-20 05:02:00,53.0,50.7,29.65,West,267,1.2,3.5,92,0.06,RA,,0.20,WeatherDisplay:10.37,2013-04-20 09:02:00,
2013-04-20 05:07:00,52.7,50.4,29.66,NW,318,2.3,5.8,92,0.07,RA,,0.21,WeatherDisplay:10.37,2013-04-20 09:07:00,
2013-04-20 05:12:00,52.5,50.5,29.66,NW,315,1.2,6.0,93,0.09,RA,,0.23,WeatherDisplay:10.37,2013-04-20 09:12:00,
2013-04-20 05:17:00,52.1,49.6,29.67,West,259,5.8,10.0,91,0.09,RA,,0.24,WeatherDisplay:10.37,2013-04-20 09:17:00,
2013-04-20 05:22:00,51.6,49.1,29.68,WNW,294,2.2,6.9,91,0.10,RA,,0.27,WeatherDisplay:10.37,2013-04-20 09:22:00,
2013-04-20 05:27:00,51.3,49.1,29.66,NE,40,0.7,2.3,92,0.13,RA,,0.29,WeatherDisplay:10.37,2013-04-20 09:27:00,
2013-04-20 05:32:00,50.9,48.7,29.68,NW,315,3.7,5.8,92,0.13,RA,,0.31,WeatherDisplay:10.37,2013-04-20 09:32:00,
2013-04-20 05:37:00,50.6,48.4,29.66,NW,317,1.0,3.5,92,0.14,RA,,0.32,WeatherDisplay:10.37,2013-04-20 09:37:00,
2013-04-20 05:42:00,50.4,48.5,29.66,NW,322,2.4,4.0,93,0.15,RA,,0.33,WeatherDisplay:10.37,2013-04-20 09:42:00,
2013-04-20 05:47:00,50.3,48.6,29.66,West,263,1.2,4.6,94,0.15,RA,,0.34,WeatherDisplay:10.37,2013-04-20 09:47:00,
2013-04-20 05:52:00,50.1,48.4,29.67,SW,223,0.5,2.3,94,0.15,RA,,0.34,WeatherDisplay:10.37,2013-04-20 09:52:00,
2013-04-20 05:57:00,50.1,48.4,29.68,WSW,249,1.0,2.3,94,0.16,RA,,0.35,WeatherDisplay:10.37,2013-04-20 09:57:00,
2013-04-20 06:02:00,49.9,48.2,29.70,WNW,284,4.0,8.1,94,0.15,-RA,,0.35,WeatherDisplay:10.37,2013-04-20 10:02:00,
2013-04-20 06:07:00,49.7,48.0,29.70,WNW,292,2.7,6.9,94,0.16,-RA,,0.36,WeatherDisplay:10.37,2013-04-20 10:07:00,
2013-04-20 06:12:00,49.4,47.7,29.71,WSW,255,4.2,9.0,94,0.14,-RA,,0.36,WeatherDisplay:10.37,2013-04-20 10:12:00,
2013-04-20 06:17:00,49.0,47.3,29.70,West,280,1.3,5.8,94,0.12,-RA,,0.36,WeatherDisplay:10.37,2013-04-20 10:17:00,
2013-04-20 06:22:00,48.9,47.2,29.70,NE,46,1.0,5.0,94,0.10,-RA,,0.36,WeatherDisplay:10.37,2013-04-20 10:22:00,
2013-04-20 06:27:00,48.8,47.2,29.71,West,270,2.1,4.6,94,0.08,-RA,,0.37,WeatherDisplay:10.37,2013-04-20 10:27:00,
2013-04-20 06:32:00,48.7,47.1,29.72,West,268,1.2,6.9,94,0.07,-RA,,0.37,WeatherDisplay:10.37,2013-04-20 10:32:00,
2013-04-20 06:37:00,48.7,47.1,29.71,WNW,300,0.0,1.2,94,0.06,-RA,,0.38,WeatherDisplay:10.37,2013-04-20 10:37:00,
2013-04-20 06:42:00,48.5,46.9,29.71,West,272,2.8,3.5,94,0.05,-RA,,0.38,WeatherDisplay:10.37,2013-04-20 10:42:00,
2013-04-20 06:47:00,48.5,46.9,29.72,WNW,300,2.1,4.6,94,0.04,-RA,,0.38,WeatherDisplay:10.37,2013-04-20 10:47:00,
2013-04-20 06:52:00,48.3,46.7,29.72,WNW,287,2.3,6.0,94,0.05,-RA,,0.39,WeatherDisplay:10.37,2013-04-20 10:52:00,
2013-04-20 06:57:00,48.0,46.1,29.72,WNW,303,1.5,6.9,93,0.05,-RA,,0.40,WeatherDisplay:10.37,2013-04-20 10:57:00,
2013-04-20 07:02:00,47.9,46.3,29.73,WNW,290,2.5,5.0,94,0.05,RA,,0.40,WeatherDisplay:10.37,2013-04-20 11:02:00,
2013-04-20 07:07:00,47.7,45.8,29.74,NW,309,4.0,11.5,93,0.05,RA,,0.41,WeatherDisplay:10.37,2013-04-20 11:07:00,
2013-04-20 07:12:00,47.4,45.5,29.75,WNW,284,3.0,8.1,93,0.06,RA,,0.42,WeatherDisplay:10.37,2013-04-20 11:12:00,
2013-04-20 07:17:00,47.1,45.2,29.76,WNW,296,3.9,12.0,93,0.07,RA,,0.43,WeatherDisplay:10.37,2013-04-20 11:17:00,
2013-04-20 07:22:00,46.8,44.9,29.76,WNW,289,3.3,7.0,93,0.08,RA,,0.44,WeatherDisplay:10.37,2013-04-20 11:22:00,
2013-04-20 07:27:00,46.5,44.6,29.76,NW,317,2.4,5.8,93,0.07,RA,,0.44,WeatherDisplay:10.37,2013-04-20 11:27:00,
2013-04-20 07:32:00,46.2,44.3,29.77,NNW,342,1.0,4.6,93,0.07,OVC,,0.44,WeatherDisplay:10.37,2013-04-20 11:32:00,
2013-04-20 07:37:00,46.0,44.1,29.76,WNW,302,4.7,9.2,93,0.06,OVC,,0.44,WeatherDisplay:10.37,2013-04-20 11:37:00,
2013-04-20 07:42:00,45.9,44.0,29.76,NW,304,1.4,5.8,93,0.06,OVC,,0.44,WeatherDisplay:10.37,2013-04-20 11:42:00,
2013-04-20 07:47:00,45.7,43.5,29.77,WSW,246,3.3,10.4,92,0.06,OVC,,0.44,WeatherDisplay:10.37,2013-04-20 11:47:00,
2013-04-20 07:52:00,45.5,43.3,29.77,SW,229,1.8,4.0,92,0.05,OVC,,0.44,WeatherDisplay:10.37,2013-04-20 11:52:00,
2013-04-20 07:57:00,45.4,42.9,29.78,SW,221,3.5,6.9,91,0.05,RA,,0.45,WeatherDisplay:10.37,2013-04-20 11:57:00,
2013-04-20 08:02:00,45.3,42.8,29.78,NW,318,2.9,5.0,91,0.05,-RA,,0.45,WeatherDisplay:10.37,2013-04-20 12:02:00,
2013-04-20 08:07:00,45.3,42.8,29.78,West,264,1.6,3.5,91,0.04,-RA,,0.45,WeatherDisplay:10.37,2013-04-20 12:07:00,
2013-04-20 08:12:00,45.1,42.3,29.78,West,261,3.3,6.0,90,0.03,-RA,,0.45,WeatherDisplay:10.37,2013-04-20 12:12:00,
2013-04-20 08:17:00,45.1,42.3,29.79,WSW,256,6.0,9.2,90,0.02,-RA,,0.45,WeatherDisplay:10.37,2013-04-20 12:17:00,
2013-04-20 08:22:00,45.1,42.6,29.80,WNW,296,1.8,6.9,91,0.01,-RA,,0.45,WeatherDisplay:10.37,2013-04-20 12:22:00,
2013-04-20 08:27:00,45.1,42.6,29.80,NW,317,2.5,5.0,91,0.01,-RA,,0.45,WeatherDisplay:10.37,2013-04-20 12:27:00,
2013-04-20 08:32:00,45.1,42.3,29.80,West,265,3.1,8.1,90,0.01,-RA,,0.45,WeatherDisplay:10.37,2013-04-20 12:32:00,
2013-04-20 08:37:00,45.2,42.4,29.80,WNW,284,1.0,4.6,90,0.01,-RA,,0.45,WeatherDisplay:10.37,2013-04-20 12:37:00,
2013-04-20 08:42:00,45.2,42.2,29.79,NW,313,2.6,8.1,89,0.01,-RA,,0.45,WeatherDisplay:10.37,2013-04-20 12:42:00,
2013-04-20 08:47:00,45.4,42.1,29.80,West,277,1.4,9.2,88,0.01,-RA,,0.45,WeatherDisplay:10.37,2013-04-20 12:47:00,
2013-04-20 08:52:00,45.5,41.9,29.79,NW,311,1.5,4.6,87,0.01,-RA,,0.45,WeatherDisplay:10.37,2013-04-20 12:52:00,
2013-04-20 08:57:00,45.8,43.0,29.80,West,279,3.3,3.3,90,0.00,-RA,,0.45,WeatherDisplay:10.37,2013-04-20 12:57:00,
2013-04-20 09:02:00,45.9,42.5,29.78,WNW,298,1.0,2.0,88,0.00,-RA,,0.45,WeatherDisplay:10.37,2013-04-20 13:02:00,
2013-04-20 09:07:00,46.0,42.0,29.79,West,279,1.2,3.5,86,0.00,-RA,,0.45,WeatherDisplay:10.37,2013-04-20 13:07:00,
2013-04-20 09:12:00,46.2,42.8,29.78,West,261,0.5,2.0,88,0.00,-RA,,0.45,WeatherDisplay:10.37,2013-04-20 13:12:00,
2013-04-20 09:17:00,46.3,42.3,29.78,WNW,303,0.8,2.3,86,0.00,OVC,,0.45,WeatherDisplay:10.37,2013-04-20 13:17:00,
2013-04-20 09:22:00,46.3,41.7,29.79,West,273,2.5,5.8,84,0.00,OVC,,0.45,WeatherDisplay:10.37,2013-04-20 13:22:00,
2013-04-20 09:27:00,46.5,41.6,29.80,West,259,5.9,9.0,83,0.00,OVC,,0.45,WeatherDisplay:10.37,2013-04-20 13:27:00,
2013-04-20 09:32:00,46.6,42.3,29.79,WSW,258,1.9,4.6,85,0.00,OVC,,0.45,WeatherDisplay:10.37,2013-04-20 13:32:00,
2013-04-20 09:37:00,46.7,42.4,29.79,West,279,0.0,0.0,85,0.00,OVC,,0.45,WeatherDisplay:10.37,2013-04-20 13:37:00,
2013-04-20 09:42:00,46.8,41.6,29.79,West,273,3.3,4.6,82,0.00,OVC,,0.45,WeatherDisplay:10.37,2013-04-20 13:42:00,
2013-04-20 09:47:00,46.9,42.3,29.79,NW,315,1.0,4.6,84,0.00,OVC,,0.45,WeatherDisplay:10.37,2013-04-20 13:47:00,
2013-04-20 09:52:00,47.0,41.8,29.80,WSW,254,0.5,3.5,82,0.00,OVC,,0.45,WeatherDisplay:10.37,2013-04-20 13:52:00,
2013-04-20 09:57:00,47.2,41.0,29.80,West,273,4.4,10.4,79,0.00,OVC,,0.45,WeatherDisplay:10.37,2013-04-20 13:57:00,
2013-04-20 10:02:00,47.3,42.1,29.81,West,266,2.5,10.0,82,0.00,OVC,,0.45,WeatherDisplay:10.37,2013-04-20 14:02:00,
2013-04-20 10:07:00,47.6,40.7,29.81,SW,231,4.3,8.1,77,0.00,OVC,,0.45,WeatherDisplay:10.37,2013-04-20 14:07:00,
2013-04-20 10:12:00,47.9,41.4,29.81,West,271,1.6,3.5,78,0.00,OVC,,0.45,WeatherDisplay:10.37,2013-04-20 14:12:00,
2013-04-20 10:17:00,48.5,42.0,29.82,NW,319,5.2,5.2,78,0.00,OVC,,0.45,WeatherDisplay:10.37,2013-04-20 14:17:00,
2013-04-20 10:22:00,48.9,41.7,29.83,WNW,294,3.1,8.1,76,0.00,OVC,,0.45,WeatherDisplay:10.37,2013-04-20 14:22:00,
2013-04-20 10:27:00,49.1,40.8,29.83,NNW,327,7.6,8.1,73,0.00,OVC,,0.45,WeatherDisplay:10.37,2013-04-20 14:27:00,
2013-04-20 10:32:00,49.0,39.6,29.82,NNW,342,4.5,9.2,70,0.00,OVC,,0.45,WeatherDisplay:10.37,2013-04-20 14:32:00,
2013-04-20 10:37:00,49.4,40.4,29.83,NW,322,3.0,4.6,71,0.00,OVC,,0.45,WeatherDisplay:10.37,2013-04-20 14:37:00,
2013-04-20 10:42:00,50.0,41.3,29.83,WNW,296,7.0,7.0,72,0.00,OVC,,0.45,WeatherDisplay:10.37,2013-04-20 14:42:00,
2013-04-20 10:47:00,50.4,41.3,29.83,WNW,284,4.7,7.0,71,0.00,OVC,,0.45,WeatherDisplay:10.37,2013-04-20 14:47:00,
2013-04-20 10:52:00,50.5,39.6,29.83,NW,317,6.3,10.4,66,0.00,OVC,,0.45,WeatherDisplay:10.37,2013-04-20 14:52:00,
2013-04-20 10:57:00,50.8,41.0,29.83,West,269,0.7,3.5,69,0.00,OVC,,0.45,WeatherDisplay:10.37,2013-04-20 14:57:00,
2013-04-20 11:02:00,51.0,39.6,29.84,NNE,30,5.3,11.5,65,0.00,OVC,,0.45,WeatherDisplay:10.37,2013-04-20 15:02:00,
2013-04-20 11:07:00,51.0,39.6,29.84,West,266,2.9,4.6,65,0.00,OVC,,0.45,WeatherDisplay:10.37,2013-04-20 15:07:00,
2013-04-20 11:12:00,51.1,40.5,29.84,WNW,298,2.1,9.2,67,0.00,OVC,,0.45,WeatherDisplay:10.37,2013-04-20 15:12:00,
2013-04-20 11:17:00,51.5,40.9,29.84,NNW,348,7.0,10.4,67,0.00,OVC,,0.45,WeatherDisplay:10.37,2013-04-20 15:17:00,
2013-04-20 11:22:00,51.6,39.8,29.84,NW,315,4.3,15.0,64,0.00,OVC,,0.45,WeatherDisplay:10.37,2013-04-20 15:22:00,
2013-04-20 11:27:00,52.1,39.1,29.85,NW,311,5.0,9.2,61,0.00,OVC,,0.45,WeatherDisplay:10.37,2013-04-20 15:27:00,
2013-04-20 11:32:00,52.4,38.5,29.84,WNW,295,7.0,11.5,59,0.00,OVC,,0.45,WeatherDisplay:10.37,2013-04-20 15:32:00,
2013-04-20 11:37:00,51.9,38.4,29.85,West,273,4.2,10.4,60,0.00,OVC,,0.45,WeatherDisplay:10.37,2013-04-20 15:37:00,
2013-04-20 11:42:00,51.9,38.4,29.85,NW,312,5.1,16.1,60,0.00,OVC,,0.45,WeatherDisplay:10.37,2013-04-20 15:42:00,
2013-04-20 11:47:00,51.8,38.3,29.85,WNW,296,4.3,9.2,60,0.00,OVC,,0.45,WeatherDisplay:10.37,2013-04-20 15:47:00,
2013-04-20 11:52:00,52.1,37.8,29.85,West,268,7.0,11.5,58,0.00,OVC,,0.45,WeatherDisplay:10.37,2013-04-20 15:52:00,
2013-04-20 11:57:00,52.3,38.8,29.86,WSW,249,4.3,4.6,60,0.00,OVC,,0.45,WeatherDisplay:10.37,2013-04-20 15:57:00,
2013-04-20 12:02:00,52.6,39.5,29.85,West,279,7.1,10.4,61,0.00,FEW,,0.45,WeatherDisplay:10.37,2013-04-20 16:02:00,
2013-04-20 12:07:00,52.8,38.4,29.85,WSW,256,5.0,9.2,58,0.00,FEW,,0.45,WeatherDisplay:10.37,2013-04-20 16:07:00,
2013-04-20 12:12:00,52.9,39.0,29.85,WSW,251,3.6,11.5,59,0.00,FEW,,0.45,WeatherDisplay:10.37,2013-04-20 16:12:00,
2013-04-20 12:17:00,52.7,37.9,29.86,WNW,284,6.9,17.3,57,0.00,FEW,,0.45,WeatherDisplay:10.37,2013-04-20 16:17:00,
2013-04-20 12:22:00,52.7,38.3,29.86,SSW,197,3.6,8.1,58,0.00,FEW,,0.45,WeatherDisplay:10.37,2013-04-20 16:22:00,
2013-04-20 12:27:00,53.2,38.4,29.86,NE,43,2.8,4.6,57,0.00,FEW,,0.45,WeatherDisplay:10.37,2013-04-20 16:27:00,
2013-04-20 12:32:00,53.4,37.6,29.86,NE,42,2.2,9.2,55,0.00,FEW,,0.45,WeatherDisplay:10.37,2013-04-20 16:32:00,
2013-04-20 12:37:00,53.6,39.2,29.86,NW,306,5.0,10.0,58,0.00,FEW,,0.45,WeatherDisplay:10.37,2013-04-20 16:37:00,
2013-04-20 12:42:00,53.5,38.2,29.86,NW,306,3.4,5.0,56,0.00,FEW,,0.45,WeatherDisplay:10.37,2013-04-20 16:42:00,
2013-04-20 12:47:00,53.5,37.7,29.85,NW,319,4.3,9.2,55,0.00,FEW,,0.45,WeatherDisplay:10.37,2013-04-20 16:47:00,
2013-04-20 12:52:00,53.7,38.4,29.85,NNW,332,3.1,9.2,56,0.00,FEW,,0.45,WeatherDisplay:10.37,2013-04-20 16:52:00,
2013-04-20 12:57:00,54.0,37.2,29.85,West,270,4.7,13.8,53,0.00,FEW,,0.45,WeatherDisplay:10.37,2013-04-20 16:57:00,
2013-04-20 13:02:00,53.8,37.5,29.85,NNW,344,2.7,8.1,54,0.00,SCT,,0.45,WeatherDisplay:10.37,2013-04-20 17:02:00,
2013-04-20 13:07:00,53.8,37.5,29.85,West,275,2.3,6.9,54,0.00,SCT,,0.45,WeatherDisplay:10.37,2013-04-20 17:07:00,
2013-04-20 13:12:00,54.2,38.4,29.86,West,264,3.4,3.5,55,0.00,SCT,,0.45,WeatherDisplay:10.37,2013-04-20 17:12:00,
2013-04-20 13:17:00,54.7,38.4,29.85,NW,310,3.9,6.0,54,0.00,SCT,,0.45,WeatherDisplay:10.37,2013-04-20 17:17:00,
2013-04-20 13:22:00,54.7,38.8,29.85,East,96,3.6,3.6,55,0.00,SCT,,0.45,WeatherDisplay:10.37,2013-04-20 17:22:00,
2013-04-20 13:27:00,55.0,38.6,29.86,WNW,289,4.4,13.0,54,0.00,SCT,,0.45,WeatherDisplay:10.37,2013-04-20 17:27:00,
2013-04-20 13:32:00,54.8,37.5,29.86,WNW,290,6.3,9.2,52,0.00,SCT,,0.45,WeatherDisplay:10.37,2013-04-20 17:32:00,
2013-04-20 13:37:00,54.6,37.3,29.86,North,355,3.6,9.2,52,0.00,SCT,,0.45,WeatherDisplay:10.37,2013-04-20 17:37:00,
2013-04-20 13:42:00,54.8,37.5,29.85,NW,313,5.5,13.8,52,0.00,SCT,,0.45,WeatherDisplay:10.37,2013-04-20 17:42:00,
2013-04-20 13:47:00,54.8,36.5,29.86,NW,308,6.9,11.5,50,0.00,SCT,,0.45,WeatherDisplay:10.37,2013-04-20 17:47:00,
2013-04-20 13:52:00,54.8,38.0,29.86,North,5,3.5,9.2,53,0.00,SCT,,0.45,WeatherDisplay:10.37,2013-04-20 17:52:00,
2013-04-20 13:57:00,55.2,37.9,29.86,West,272,4.4,9.2,52,0.00,SCT,,0.45,WeatherDisplay:10.37,2013-04-20 17:57:00,
2013-04-20 14:02:00,55.3,36.5,29.86,West,262,4.1,5.0,49,0.00,SCT,,0.45,WeatherDisplay:10.37,2013-04-20 18:02:00,
2013-04-20 14:07:00,55.2,36.4,29.87,West,272,8.0,11.5,49,0.00,SCT,,0.45,WeatherDisplay:10.37,2013-04-20 18:07:00,
2013-04-20 14:12:00,54.8,36.5,29.87,NW,320,4.1,10.4,50,0.00,SCT,,0.45,WeatherDisplay:10.37,2013-04-20 18:12:00,
2013-04-20 14:17:00,54.5,31.9,29.86,West,268,11.3,12.7,42,0.00,FEW,,0.45,WeatherDisplay:10.37,2013-04-20 18:17:00,
2013-04-20 14:22:00,54.4,32.9,29.87,NNW,347,6.3,12.7,44,0.00,FEW,,0.45,WeatherDisplay:10.37,2013-04-20 18:22:00,
2013-04-20 14:27:00,54.6,33.1,29.87,NNW,346,4.7,8.1,44,0.00,FEW,,0.45,WeatherDisplay:10.37,2013-04-20 18:27:00,
2013-04-20 14:32:00,55.1,32.4,29.88,NNW,331,9.5,13.8,42,0.00,FEW,,0.45,WeatherDisplay:10.37,2013-04-20 18:32:00,
2013-04-20 14:37:00,54.4,31.8,29.88,WNW,283,9.3,14.0,42,0.00,FEW,,0.45,WeatherDisplay:10.37,2013-04-20 18:37:00,
2013-04-20 14:42:00,54.1,31.5,29.88,West,275,7.1,15.0,42,0.00,FEW,,0.45,WeatherDisplay:10.37,2013-04-20 18:42:00,
2013-04-20 14:47:00,53.9,32.5,29.88,NNW,341,4.2,6.9,44,0.00,FEW,,0.45,WeatherDisplay:10.37,2013-04-20 18:47:00,
2013-04-20 14:52:00,53.9,32.5,29.88,NNW,335,5.9,11.5,44,0.00,FEW,,0.45,WeatherDisplay:10.37,2013-04-20 18:52:00,
2013-04-20 14:57:00,53.8,32.9,29.88,WSW,250,8.0,11.5,45,0.00,FEW,,0.45,WeatherDisplay:10.37,2013-04-20 18:57:00,
2013-04-20 15:02:00,54.1,33.2,29.88,WNW,292,5.6,12.7,45,0.00,CLR,,0.45,WeatherDisplay:10.37,2013-04-20 19:02:00,
2013-04-20 15:07:00,54.2,32.7,29.88,SW,233,8.3,11.5,44,0.00,CLR,,0.45,WeatherDisplay:10.37,2013-04-20 19:07:00,
2013-04-20 15:12:00,54.1,33.2,29.89,WSW,254,5.0,11.5,45,0.00,CLR,,0.45,WeatherDisplay:10.37,2013-04-20 19:12:00,
2013-04-20 15:17:00,54.3,33.9,29.88,WNW,296,4.7,6.9,46,0.00,CLR,,0.45,WeatherDisplay:10.37,2013-04-20 19:17:00,
2013-04-20 15:22:00,54.8,33.3,29.89,NW,308,6.5,8.1,44,0.00,CLR,,0.45,WeatherDisplay:10.37,2013-04-20 19:22:00,
2013-04-20 15:27:00,55.2,34.2,29.89,WNW,288,7.5,13.8,45,0.00,CLR,,0.45,WeatherDisplay:10.37,2013-04-20 19:27:00,
2013-04-20 15:32:00,54.9,33.4,29.89,WSW,256,4.6,9.2,44,0.00,CLR,,0.45,WeatherDisplay:10.37,2013-04-20 19:32:00,
2013-04-20 15:37:00,54.5,33.6,29.89,WNW,291,3.5,11.5,45,0.00,CLR,,0.45,WeatherDisplay:10.37,2013-04-20 19:37:00,
2013-04-20 15:42:00,54.5,33.0,29.90,SW,230,6.1,16.1,44,0.00,CLR,,0.45,WeatherDisplay:10.37,2013-04-20 19:42:00,
2013-04-20 15:47:00,54.4,32.9,29.90,West,260,7.8,11.5,44,0.00,CLR,,0.45,WeatherDisplay:10.37,2013-04-20 19:47:00,
2013-04-20 15:52:00,54.5,34.1,29.90,WNW,298,3.1,6.0,46,0.00,CLR,,0.45,WeatherDisplay:10.37,2013-04-20 19:52:00,
2013-04-20 15:57:00,55.0,33.5,29.90,West,276,4.9,7.0,44,0.00,CLR,,0.45,WeatherDisplay:10.37,2013-04-20 19:57:00,
2013-04-20 16:02:00,55.1,33.6,29.90,WNW,283,4.4,6.0,44,0.00,CLR,,0.45,WeatherDisplay:10.37,2013-04-20 20:02:00,
2013-04-20 16:07:00,55.4,33.3,29.90,WNW,296,6.4,9.0,43,0.00,CLR,,0.45,WeatherDisplay:10.37,2013-04-20 20:07:00,
2013-04-20 16:12:00,55.4,33.8,29.91,WNW,289,3.5,5.0,44,0.00,CLR,,0.45,WeatherDisplay:10.37,2013-04-20 20:12:00,
2013-04-20 16:17:00,55.2,33.1,29.91,WNW,295,5.8,12.7,43,0.00,FEW,,0.45,WeatherDisplay:10.37,2013-04-20 20:17:00,
2013-04-20 16:22:00,54.9,32.8,29.91,WNW,294,4.1,8.1,43,0.00,FEW,,0.45,WeatherDisplay:10.37,2013-04-20 20:22:00,
2013-04-20 16:27:00,54.8,33.3,29.91,NW,304,2.2,6.0,44,0.00,FEW,,0.45,WeatherDisplay:10.37,2013-04-20 20:27:00,
2013-04-20 16:32:00,55.0,32.9,29.91,NW,312,3.7,3.7,43,0.00,FEW,,0.45,WeatherDisplay:10.37,2013-04-20 20:32:00,
2013-04-20 16:37:00,55.3,32.6,29.92,SW,236,4.7,6.0,42,0.00,FEW,,0.45,WeatherDisplay:10.37,2013-04-20 20:37:00,
2013-04-20 16:42:00,55.2,31.3,29.92,WNW,292,4.7,13.8,40,0.00,FEW,,0.45,WeatherDisplay:10.37,2013-04-20 20:42:00,
2013-04-20 16:47:00,55.2,31.9,29.92,WNW,285,7.7,11.5,41,0.00,FEW,,0.45,WeatherDisplay:10.37,2013-04-20 20:47:00,
2013-04-20 16:52:00,55.1,32.4,29.93,WNW,302,5.3,8.1,42,0.00,FEW,,0.45,WeatherDisplay:10.37,2013-04-20 20:52:00,
2013-04-20 16:57:00,55.4,32.1,29.93,West,278,2.7,8.0,41,0.00,FEW,,0.45,WeatherDisplay:10.37,2013-04-20 20:57:00,
2013-04-20 17:02:00,55.9,33.7,29.93,North,355,3.4,3.5,43,0.00,SCT,,0.45,WeatherDisplay:10.37,2013-04-20 21:02:00,
2013-04-20 17:07:00,56.0,32.0,29.93,West,265,5.0,5.0,40,0.00,SCT,,0.45,WeatherDisplay:10.37,2013-04-20 21:07:00,
2013-04-20 17:12:00,55.7,33.5,29.93,NW,305,2.2,9.2,43,0.00,SCT,,0.45,WeatherDisplay:10.37,2013-04-20 21:12:00,
2013-04-20 17:17:00,55.9,33.1,29.94,North,355,1.2,5.8,42,0.00,SCT,,0.45,WeatherDisplay:10.37,2013-04-20 21:17:00,
2013-04-20 17:22:00,56.8,31.4,29.94,ENE,74,1.0,3.5,38,0.00,SCT,,0.45,WeatherDisplay:10.37,2013-04-20 21:22:00,
2013-04-20 17:27:00,57.2,32.4,29.94,ENE,69,3.5,3.5,39,0.00,SCT,,0.45,WeatherDisplay:10.37,2013-04-20 21:27:00,
2013-04-20 17:32:00,56.9,31.5,29.94,WNW,293,3.0,11.0,38,0.00,SCT,,0.45,WeatherDisplay:10.37,2013-04-20 21:32:00,
2013-04-20 17:37:00,56.2,31.5,29.94,WNW,298,6.2,12.7,39,0.00,SCT,,0.45,WeatherDisplay:10.37,2013-04-20 21:37:00,
2013-04-20 17:42:00,55.6,31.0,29.95,WNW,282,5.1,6.0,39,0.00,SCT,,0.45,WeatherDisplay:10.37,2013-04-20 21:42:00,
2013-04-20 17:47:00,55.5,31.5,29.95,WNW,295,3.4,7.0,40,0.00,SCT,,0.45,WeatherDisplay:10.37,2013-04-20 21:47:00,
2013-04-20 17:52:00,55.6,31.6,29.95,WNW,289,8.1,11.5,40,0.00,SCT,,0.45,WeatherDisplay:10.37,2013-04-20 21:52:00,
2013-04-20 17:57:00,55.5,31.5,29.96,North,355,2.4,9.2,40,0.00,SCT,,0.45,WeatherDisplay:10.37,2013-04-20 21:57:00,
2013-04-20 18:02:00,55.4,30.2,29.97,WSW,240,5.4,10.4,38,0.00,SCT,,0.45,WeatherDisplay:10.37,2013-04-20 22:02:00,
2013-04-20 18:07:00,55.2,30.7,29.97,NW,311,4.9,10.4,39,0.00,SCT,,0.45,WeatherDisplay:10.37,2013-04-20 22:07:00,
2013-04-20 18:12:00,55.4,30.2,29.97,North,5,3.3,4.6,38,0.00,SCT,,0.45,WeatherDisplay:10.37,2013-04-20 22:12:00,
2013-04-20 18:17:00,55.3,30.1,29.97,NW,321,4.2,12.7,38,0.00,SCT,,0.45,WeatherDisplay:10.37,2013-04-20 22:17:00,
2013-04-20 18:22:00,55.2,30.0,29.97,WNW,294,4.7,6.9,38,0.00,SCT,,0.45,WeatherDisplay:10.37,2013-04-20 22:22:00,
2013-04-20 18:27:00,55.1,29.3,29.98,NNW,338,5.7,11.5,37,0.00,SCT,,0.45,WeatherDisplay:10.37,2013-04-20 22:27:00,
2013-04-20 18:32:00,54.9,29.7,29.98,NW,316,4.9,6.0,38,0.00,SCT,,0.45,WeatherDisplay:10.37,2013-04-20 22:32:00,
2013-04-20 18:37:00,54.6,30.1,29.98,WNW,300,2.0,5.8,39,0.00,SCT,,0.45,WeatherDisplay:10.37,2013-04-20 22:37:00,
2013-04-20 18:42:00,54.6,30.1,29.99,NE,45,1.8,5.8,39,0.00,SCT,,0.45,WeatherDisplay:10.37,2013-04-20 22:42:00,
2013-04-20 18:47:00,54.4,29.9,29.99,NNE,23,2.9,6.9,39,0.00,SCT,,0.45,WeatherDisplay:10.37,2013-04-20 22:47:00,
2013-04-20 18:52:00,54.2,29.8,30.00,WSW,258,3.3,5.0,39,0.00,SCT,,0.45,WeatherDisplay:10.37,2013-04-20 22:52:00,
2013-04-20 18:57:00,54.0,30.2,30.00,NW,321,2.0,9.2,40,0.00,SCT,,0.45,WeatherDisplay:10.37,2013-04-20 22:57:00,
2013-04-20 19:02:00,53.8,30.0,30.00,NNW,345,5.7,10.4,40,0.00,SCT,,0.45,WeatherDisplay:10.37,2013-04-20 23:02:00,
2013-04-20 19:07:00,53.5,29.1,30.01,NE,40,5.9,5.9,39,0.00,SCT,,0.45,WeatherDisplay:10.37,2013-04-20 23:07:00,
2013-04-20 19:12:00,53.4,29.7,30.01,West,273,3.9,4.6,40,0.00,SCT,,0.45,WeatherDisplay:10.37,2013-04-20 23:12:00,
2013-04-20 19:17:00,53.1,29.4,30.01,West,268,4.0,8.1,40,0.00,SCT,,0.45,WeatherDisplay:10.37,2013-04-20 23:17:00,
2013-04-20 19:22:00,52.8,30.3,30.02,West,277,2.6,3.5,42,0.00,SCT,,0.45,WeatherDisplay:10.37,2013-04-20 23:22:00,
2013-04-20 19:27:00,52.4,29.4,30.02,WNW,302,2.2,5.8,41,0.00,SCT,,0.45,WeatherDisplay:10.37,2013-04-20 23:27:00,
2013-04-20 19:32:00,52.2,29.8,30.03,WNW,294,3.8,6.9,42,0.00,SCT,,0.45,WeatherDisplay:10.37,2013-04-20 23:32:00,
2013-04-20 19:37:00,52.0,29.6,30.03,West,260,5.6,8.0,42,0.00,SCT,,0.45,WeatherDisplay:10.37,2013-04-20 23:37:00,
2013-04-20 19:42:00,51.7,29.3,30.03,West,281,2.8,5.8,42,0.00,SCT,,0.45,WeatherDisplay:10.37,2013-04-20 23:42:00,
2013-04-20 19:47:00,51.5,29.7,30.04,North,349,2.3,3.5,43,0.00,SCT,,0.45,WeatherDisplay:10.37,2013-04-20 23:47:00,
2013-04-20 19:52:00,51.2,29.4,30.04,North,360,3.8,5.8,43,0.00,SCT,,0.45,WeatherDisplay:10.37,2013-04-20 23:52:00,
2013-04-20 19:57:00,51.0,29.3,30.05,WNW,298,2.2,4.6,43,0.00,SCT,,0.45,WeatherDisplay:10.37,2013-04-20 23:57:00,
2013-04-20 20:02:00,50.9,29.7,30.05,NNW,330,2.7,5.8,44,0.00,FEW,,0.45,WeatherDisplay:10.37,2013-04-21 00:02:00,
2013-04-20 20:07:00,50.7,29.6,30.05,NW,304,2.5,10.4,44,0.00,FEW,,0.45,WeatherDisplay:10.37,2013-04-21 00:07:00,
2013-04-20 20:12:00,50.5,28.8,30.06,NNE,15,3.8,6.9,43,0.00,FEW,,0.45,WeatherDisplay:10.37,2013-04-21 00:12:00,
2013-04-20 20:17:00,50.5,28.8,30.06,NW,309,5.1,6.0,43,0.00,FEW,,0.45,WeatherDisplay:10.37,2013-04-21 00:17:00,
2013-04-20 20:22:00,50.3,29.2,30.07,NNE,16,1.5,4.6,44,0.00,FEW,,0.45,WeatherDisplay:10.37,2013-04-21 00:22:00,
2013-04-20 20:27:00,50.1,29.6,30.07,NNW,333,2.1,4.6,45,0.00,FEW,,0.45,WeatherDisplay:10.37,2013-04-21 00:27:00,
2013-04-20 20:32:00,49.9,28.8,30.07,NW,319,1.8,11.5,44,0.00,FEW,,0.45,WeatherDisplay:10.37,2013-04-21 00:32:00,
2013-04-20 20:37:00,49.7,28.6,30.08,WNW,302,3.3,6.9,44,0.00,FEW,,0.45,WeatherDisplay:10.37,2013-04-21 00:37:00,
2013-04-20 20:42:00,49.6,28.6,30.09,West,275,0.6,3.5,44,0.00,FEW,,0.45,WeatherDisplay:10.37,2013-04-21 00:42:00,
2013-04-20 20:47:00,49.4,28.4,30.09,West,277,2.6,4.6,44,0.00,FEW,,0.45,WeatherDisplay:10.37,2013-04-21 00:47:00,
2013-04-20 20:52:00,49.3,28.8,30.09,NW,309,2.4,4.6,45,0.00,FEW,,0.45,WeatherDisplay:10.37,2013-04-21 00:52:00,
2013-04-20 20:57:00,49.0,28.0,30.10,WNW,284,2.0,4.6,44,0.00,FEW,,0.45,WeatherDisplay:10.37,2013-04-21 00:57:00,
2013-04-20 21:02:00,48.9,27.9,30.10,NW,306,2.6,3.5,44,0.00,CLR,,0.45,WeatherDisplay:10.37,2013-04-21 01:02:00,
2013-04-20 21:07:00,48.7,27.7,30.11,WNW,302,2.9,4.6,44,0.00,CLR,,0.45,WeatherDisplay:10.37,2013-04-21 01:07:00,
2013-04-20 21:12:00,48.6,28.2,30.11,SW,235,1.8,4.0,45,0.00,CLR,,0.45,WeatherDisplay:10.37,2013-04-21 01:12:00,
2013-04-20 21:17:00,48.5,27.0,30.12,NW,315,3.5,3.5,43,0.00,CLR,,0.45,WeatherDisplay:10.37,2013-04-21 01:17:00,
2013-04-20 21:22:00,48.4,26.9,30.12,West,267,2.9,9.2,43,0.00,CLR,,0.45,WeatherDisplay:10.37,2013-04-21 01:22:00,
2013-04-20 21:27:00,48.3,26.2,30.12,WSW,254,3.9,8.1,42,0.00,CLR,,0.45,WeatherDisplay:10.37,2013-04-21 01:27:00,
2013-04-20 21:32:00,48.2,26.7,30.13,NW,321,1.5,3.5,43,0.00,CLR,,0.45,WeatherDisplay:10.37,2013-04-21 01:32:00,
2013-04-20 21:37:00,48.0,26.5,30.13,WNW,302,3.8,8.1,43,0.00,CLR,,0.45,WeatherDisplay:10.37,2013-04-21 01:37:00,
2013-04-20 21:42:00,47.9,26.5,30.13,NNW,331,2.7,5.8,43,0.00,CLR,,0.45,WeatherDisplay:10.37,2013-04-21 01:42:00,
2013-04-20 21:47:00,47.8,26.4,30.14,WNW,298,4.6,8.1,43,0.00,CLR,,0.45,WeatherDisplay:10.37,2013-04-21 01:47:00,
2013-04-20 21:52:00,47.7,26.8,30.14,NW,310,2.9,4.6,44,0.00,CLR,,0.45,WeatherDisplay:10.37,2013-04-21 01:52:00,
2013-04-20 21:57:00,47.4,26.6,30.14,NW,319,3.5,5.8,44,0.00,CLR,,0.45,WeatherDisplay:10.37,2013-04-21 01:57:00,
2013-04-20 22:02:00,47.2,27.5,30.14,West,263,2.8,6.0,46,0.00,CLR,,0.45,WeatherDisplay:10.37,2013-04-21 02:02:00,
2013-04-20 22:07:00,47.0,27.3,30.15,WNW,300,1.4,4.6,46,0.00,CLR,,0.45,WeatherDisplay:10.37,2013-04-21 02:07:00,
2013-04-20 22:12:00,46.9,27.7,30.15,WSW,238,3.2,6.0,47,0.00,CLR,,0.45,WeatherDisplay:10.37,2013-04-21 02:12:00,
2013-04-20 22:17:00,46.7,27.0,30.15,West,266,3.2,11.5,46,0.00,CLR,,0.45,WeatherDisplay:10.37,2013-04-21 02:17:00,
2013-04-20 22:22:00,46.7,27.5,30.15,NW,306,3.2,5.8,47,0.00,CLR,,0.45,WeatherDisplay:10.37,2013-04-21 02:22:00,
2013-04-20 22:27:00,46.6,26.9,30.16,NNW,327,2.4,6.9,46,0.00,CLR,,0.45,WeatherDisplay:10.37,2013-04-21 02:27:00,
2013-04-20 22:32:00,46.3,27.7,30.16,North,351,3.9,5.8,48,0.00,CLR,,0.45,WeatherDisplay:10.37,2013-04-21 02:32:00,
2013-04-20 22:37:00,46.2,26.0,30.17,NNW,348,4.3,6.9,45,0.00,CLR,,0.45,WeatherDisplay:10.37,2013-04-21 02:37:00,
2013-04-20 22:42:00,46.0,25.8,30.17,NNW,338,7.4,11.5,45,0.00,CLR,,0.45,WeatherDisplay:10.37,2013-04-21 02:42:00,
2013-04-20 22:47:00,45.9,25.7,30.17,NNW,338,4.6,9.2,45,0.00,CLR,,0.45,WeatherDisplay:10.37,2013-04-21 02:47:00,
2013-04-20 22:52:00,45.6,26.0,30.18,West,263,4.8,8.1,46,0.00,CLR,,0.45,WeatherDisplay:10.37,2013-04-21 02:52:00,
2013-04-20 22:57:00,45.4,26.3,30.17,NW,306,3.1,5.8,47,0.00,CLR,,0.45,WeatherDisplay:10.37,2013-04-21 02:57:00,
2013-04-20 23:02:00,45.2,25.6,30.17,NNE,15,4.4,11.5,46,0.00,CLR,,0.45,WeatherDisplay:10.37,2013-04-21 03:02:00,
2013-04-20 23:07:00,44.9,25.3,30.18,WNW,286,2.2,4.0,46,0.00,CLR,,0.45,WeatherDisplay:10.37,2013-04-21 03:07:00,
2013-04-20 23:12:00,44.7,25.2,30.18,WNW,300,5.0,7.0,46,0.00,CLR,,0.45,WeatherDisplay:10.37,2013-04-21 03:12:00,
2013-04-20 23:17:00,44.5,24.5,30.18,WNW,303,6.1,10.4,45,0.00,CLR,,0.45,WeatherDisplay:10.37,2013-04-21 03:17:00,
2013-04-20 23:22:00,44.4,24.4,30.19,NW,310,2.8,8.1,45,0.00,CLR,,0.45,WeatherDisplay:10.37,2013-04-21 03:22:00,
2013-04-20 23:27:00,44.2,24.2,30.19,North,5,5.3,8.1,45,0.00,CLR,,0.45,WeatherDisplay:10.37,2013-04-21 03:27:00,
2013-04-20 23:32:00,44.0,23.5,30.19,NW,324,3.6,9.2,44,0.00,CLR,,0.45,WeatherDisplay:10.37,2013-04-21 03:32:00,
2013-04-20 23:37:00,43.9,23.9,30.20,NNW,335,5.1,10.4,45,0.00,CLR,,0.45,WeatherDisplay:10.37,2013-04-21 03:37:00,
2013-04-20 23:42:00,43.8,24.3,30.20,WNW,303,2.8,6.9,46,0.00,CLR,,0.45,WeatherDisplay:10.37,2013-04-21 03:42:00,
2013-04-20 23:47:00,43.6,23.1,30.20,NW,309,5.0,10.4,44,0.00,CLR,,0.45,WeatherDisplay:10.37,2013-04-21 03:47:00,
2013-04-20 23:52:00,43.5,23.5,30.20,WNW,283,1.7,5.8,45,0.00,CLR,,0.45,WeatherDisplay:10.37,2013-04-21 03:52:00,
2013-04-20 23:57:00,43.3,24.4,30.21,WSW,240,3.6,6.0,47,0.00,CLR,,0.45,WeatherDisplay:10.37,2013-04-21 03:57:00,